Portada
METAR-TAF:

METAR-TAF

Aeroports :

Burlington, Wisconsin, Estats Units d'Amèrica

Burlington Municipal Airport

latitud: 42-41-26N, longitud: 088-18-17W, altitud: 237 m

Observació

L'informe es va fer fa 7 minuts, a les 04:55 UTC
Vent 11 kt del Nord-Est amb ràfegues de 20 kt
Temperatura 8°C
Humitat 57%
Pressió 1019 hPa
Visibilitat: 16.1 km
Núvols disperses a una alçada de 2700 ft

METAR: KBUU 250455Z AUTO 04011G20KT 10SM SCT027 08/00 A3008 RMK AO2 T00781005

Hora: 00:02 (05:02 UTC)


TAF: manca

Observacions i pronòstics meteorològics de més de 4000 aeroports (METAR i TAF).

Les estacions disponibles són els punts grocs i vermells al mapa.

Posi el ratolí al punt desitjat per veure el nom de l'estació.

Feu clic per veure les observacions i els pronòstics meteorològics.

Per canviar el mapa: feu clic els botons verds amb una creu de color negre per apropar; al botó verd amb un guió per allunyar la imatge; o en les fletxes verdes per a mapes adjacents.


METAR-TAF: